sensor_id;sensor_type;location;lat;lon;timestamp;P1;durP1;ratioP1;P2;durP2;ratioP2
29958;SDS011;16815;51.100;6.516;2022-08-06T00:01:48;4.50;;;1.80;;
29958;SDS011;16815;51.100;6.516;2022-08-06T00:04:14;5.63;;;1.93;;
29958;SDS011;16815;51.100;6.516;2022-08-06T00:06:40;3.47;;;1.43;;
29958;SDS011;16815;51.100;6.516;2022-08-06T00:09:06;5.47;;;1.90;;
29958;SDS011;16815;51.100;6.516;2022-08-06T00:11:32;2.43;;;1.67;;
29958;SDS011;16815;51.100;6.516;2022-08-06T00:13:58;5.83;;;1.73;;
29958;SDS011;16815;51.100;6.516;2022-08-06T00:16:24;2.60;;;2.00;;
29958;SDS011;16815;51.100;6.516;2022-08-06T00:18:50;3.70;;;2.13;;
29958;SDS011;16815;51.100;6.516;2022-08-06T00:21:16;5.97;;;1.93;;
29958;SDS011;16815;51.100;6.516;2022-08-06T00:23:42;3.10;;;1.50;;
29958;SDS011;16815;51.100;6.516;2022-08-06T00:26:08;5.53;;;2.00;;
29958;SDS011;16815;51.100;6.516;2022-08-06T00:28:34;1.70;;;1.60;;
29958;SDS011;16815;51.100;6.516;2022-08-06T00:31:00;2.40;;;1.73;;
29958;SDS011;16815;51.100;6.516;2022-08-06T00:33:28;4.40;;;1.93;;
29958;SDS011;16815;51.100;6.516;2022-08-06T00:35:53;2.70;;;1.70;;
29958;SDS011;16815;51.100;6.516;2022-08-06T00:38:19;3.80;;;1.97;;
29958;SDS011;16815;51.100;6.516;2022-08-06T00:40:45;2.77;;;1.70;;
29958;SDS011;16815;51.100;6.516;2022-08-06T00:43:12;4.87;;;1.70;;
29958;SDS011;16815;51.100;6.516;2022-08-06T00:45:38;5.77;;;1.90;;
29958;SDS011;16815;51.100;6.516;2022-08-06T00:48:04;3.77;;;1.80;;
29958;SDS011;16815;51.100;6.516;2022-08-06T00:50:30;6.73;;;1.87;;
29958;SDS011;16815;51.100;6.516;2022-08-06T00:52:56;3.03;;;1.60;;
29958;SDS011;16815;51.100;6.516;2022-08-06T00:55:23;3.60;;;2.00;;
29958;SDS011;16815;51.100;6.516;2022-08-06T00:57:49;4.33;;;2.03;;
29958;SDS011;16815;51.100;6.516;2022-08-06T01:00:14;5.00;;;1.80;;
29958;SDS011;16815;51.100;6.516;2022-08-06T01:02:40;5.67;;;2.40;;
29958;SDS011;16815;51.100;6.516;2022-08-06T01:05:07;5.93;;;2.73;;
29958;SDS011;16815;51.100;6.516;2022-08-06T01:07:33;3.17;;;2.07;;
29958;SDS011;16815;51.100;6.516;2022-08-06T01:09:59;3.23;;;2.03;;
29958;SDS011;16815;51.100;6.516;2022-08-06T01:12:26;3.37;;;1.70;;
29958;SDS011;16815;51.100;6.516;2022-08-06T01:14:52;5.00;;;2.30;;
29958;SDS011;16815;51.100;6.516;2022-08-06T01:17:22;2.90;;;1.80;;
29958;SDS011;16815;51.100;6.516;2022-08-06T01:19:51;3.57;;;1.83;;
29958;SDS011;16815;51.100;6.516;2022-08-06T01:25:09;2.90;;;1.77;;
29958;SDS011;16815;51.100;6.516;2022-08-06T01:30:17;4.40;;;1.83;;
29958;SDS011;16815;51.100;6.516;2022-08-06T01:32:48;2.53;;;1.90;;
29958;SDS011;16815;51.100;6.516;2022-08-06T01:35:21;3.00;;;1.97;;
29958;SDS011;16815;51.100;6.516;2022-08-06T01:38:02;2.57;;;2.00;;
29958;SDS011;16815;51.100;6.516;2022-08-06T01:40:30;5.37;;;1.90;;
29958;SDS011;16815;51.100;6.516;2022-08-06T01:42:57;5.07;;;2.27;;
29958;SDS011;16815;51.100;6.516;2022-08-06T01:45:25;3.00;;;2.00;;
29958;SDS011;16815;51.100;6.516;2022-08-06T01:47:53;5.20;;;2.27;;
29958;SDS011;16815;51.100;6.516;2022-08-06T01:50:27;5.60;;;2.33;;
29958;SDS011;16815;51.100;6.516;2022-08-06T01:52:53;5.37;;;2.17;;
29958;SDS011;16815;51.100;6.516;2022-08-06T01:55:19;4.43;;;1.93;;
29958;SDS011;16815;51.100;6.516;2022-08-06T01:57:48;5.13;;;2.20;;
29958;SDS011;16815;51.100;6.516;2022-08-06T02:00:15;3.53;;;2.50;;
29958;SDS011;16815;51.100;6.516;2022-08-06T02:02:42;8.60;;;2.87;;
29958;SDS011;16815;51.100;6.516;2022-08-06T02:05:09;6.33;;;2.20;;
29958;SDS011;16815;51.100;6.516;2022-08-06T02:07:36;4.20;;;2.20;;
29958;SDS011;16815;51.100;6.516;2022-08-06T02:10:04;4.30;;;2.00;;
29958;SDS011;16815;51.100;6.516;2022-08-06T02:12:30;8.03;;;2.10;;
29958;SDS011;16815;51.100;6.516;2022-08-06T02:14:59;4.17;;;2.00;;
29958;SDS011;16815;51.100;6.516;2022-08-06T02:17:27;6.63;;;2.20;;
29958;SDS011;16815;51.100;6.516;2022-08-06T02:19:53;5.47;;;2.57;;
29958;SDS011;16815;51.100;6.516;2022-08-06T02:22:24;5.00;;;2.60;;
29958;SDS011;16815;51.100;6.516;2022-08-06T02:24:51;4.10;;;2.33;;
29958;SDS011;16815;51.100;6.516;2022-08-06T02:27:17;4.90;;;2.37;;
29958;SDS011;16815;51.100;6.516;2022-08-06T02:29:44;3.00;;;1.93;;
29958;SDS011;16815;51.100;6.516;2022-08-06T02:32:11;4.70;;;2.30;;
29958;SDS011;16815;51.100;6.516;2022-08-06T02:34:38;5.27;;;2.50;;
29958;SDS011;16815;51.100;6.516;2022-08-06T02:39:55;3.07;;;2.00;;
29958;SDS011;16815;51.100;6.516;2022-08-06T02:42:31;5.13;;;2.30;;
29958;SDS011;16815;51.100;6.516;2022-08-06T02:44:59;2.47;;;1.70;;
29958;SDS011;16815;51.100;6.516;2022-08-06T02:47:42;4.23;;;1.93;;
29958;SDS011;16815;51.100;6.516;2022-08-06T02:50:08;3.33;;;2.30;;
29958;SDS011;16815;51.100;6.516;2022-08-06T02:52:37;2.33;;;1.90;;
29958;SDS011;16815;51.100;6.516;2022-08-06T02:55:10;4.47;;;2.57;;
29958;SDS011;16815;51.100;6.516;2022-08-06T02:57:38;5.83;;;2.90;;
29958;SDS011;16815;51.100;6.516;2022-08-06T03:00:05;5.20;;;2.40;;
29958;SDS011;16815;51.100;6.516;2022-08-06T03:02:32;4.70;;;2.20;;
29958;SDS011;16815;51.100;6.516;2022-08-06T03:04:59;3.77;;;2.10;;
29958;SDS011;16815;51.100;6.516;2022-08-06T03:07:27;3.73;;;2.27;;
29958;SDS011;16815;51.100;6.516;2022-08-06T03:09:54;14.13;;;3.43;;
29958;SDS011;16815;51.100;6.516;2022-08-06T03:12:20;5.07;;;2.37;;
29958;SDS011;16815;51.100;6.516;2022-08-06T03:14:47;4.93;;;2.70;;
29958;SDS011;16815;51.100;6.516;2022-08-06T03:17:14;4.67;;;2.63;;
29958;SDS011;16815;51.100;6.516;2022-08-06T03:19:41;4.13;;;2.80;;
29958;SDS011;16815;51.100;6.516;2022-08-06T03:22:09;2.77;;;2.30;;
29958;SDS011;16815;51.100;6.516;2022-08-06T03:24:36;6.50;;;2.33;;
29958;SDS011;16815;51.100;6.516;2022-08-06T03:27:03;7.13;;;2.57;;
29958;SDS011;16815;51.100;6.516;2022-08-06T03:29:29;3.60;;;2.17;;
29958;SDS011;16815;51.100;6.516;2022-08-06T03:31:56;3.33;;;2.20;;
29958;SDS011;16815;51.100;6.516;2022-08-06T03:34:22;5.10;;;2.70;;
29958;SDS011;16815;51.100;6.516;2022-08-06T03:36:49;3.77;;;2.70;;
29958;SDS011;16815;51.100;6.516;2022-08-06T03:39:15;7.17;;;2.90;;
29958;SDS011;16815;51.100;6.516;2022-08-06T03:41:42;2.93;;;2.63;;
29958;SDS011;16815;51.100;6.516;2022-08-06T03:44:09;4.63;;;2.70;;
29958;SDS011;16815;51.100;6.516;2022-08-06T03:49:23;4.77;;;2.70;;
29958;SDS011;16815;51.100;6.516;2022-08-06T03:51:51;6.00;;;2.83;;
29958;SDS011;16815;51.100;6.516;2022-08-06T03:54:20;3.47;;;2.57;;
29958;SDS011;16815;51.100;6.516;2022-08-06T03:56:47;4.33;;;2.63;;
29958;SDS011;16815;51.100;6.516;2022-08-06T03:59:13;9.27;;;2.90;;
29958;SDS011;16815;51.100;6.516;2022-08-06T04:01:40;5.37;;;2.87;;
29958;SDS011;16815;51.100;6.516;2022-08-06T04:04:07;3.93;;;2.90;;
29958;SDS011;16815;51.100;6.516;2022-08-06T04:06:33;5.33;;;3.13;;
29958;SDS011;16815;51.100;6.516;2022-08-06T04:09:00;4.10;;;2.90;;
29958;SDS011;16815;51.100;6.516;2022-08-06T04:11:26;4.00;;;2.60;;
29958;SDS011;16815;51.100;6.516;2022-08-06T04:13:53;6.30;;;2.97;;
29958;SDS011;16815;51.100;6.516;2022-08-06T04:16:19;4.53;;;2.60;;
29958;SDS011;16815;51.100;6.516;2022-08-06T04:18:45;5.57;;;3.20;;
29958;SDS011;16815;51.100;6.516;2022-08-06T04:21:16;4.70;;;2.80;;
29958;SDS011;16815;51.100;6.516;2022-08-06T04:23:44;3.10;;;2.67;;
29958;SDS011;16815;51.100;6.516;2022-08-06T04:26:11;8.27;;;3.63;;
29958;SDS011;16815;51.100;6.516;2022-08-06T04:28:39;8.83;;;3.77;;
29958;SDS011;16815;51.100;6.516;2022-08-06T04:31:06;5.43;;;2.93;;
29958;SDS011;16815;51.100;6.516;2022-08-06T04:33:33;8.73;;;3.10;;
29958;SDS011;16815;51.100;6.516;2022-08-06T04:36:00;7.80;;;3.37;;
29958;SDS011;16815;51.100;6.516;2022-08-06T04:38:30;7.70;;;3.40;;
29958;SDS011;16815;51.100;6.516;2022-08-06T04:40:56;5.30;;;3.00;;
29958;SDS011;16815;51.100;6.516;2022-08-06T04:43:23;6.97;;;2.97;;
29958;SDS011;16815;51.100;6.516;2022-08-06T04:45:49;5.40;;;3.23;;
29958;SDS011;16815;51.100;6.516;2022-08-06T04:48:15;5.17;;;3.23;;
29958;SDS011;16815;51.100;6.516;2022-08-06T04:50:41;5.90;;;3.70;;
29958;SDS011;16815;51.100;6.516;2022-08-06T04:53:11;8.27;;;3.33;;
29958;SDS011;16815;51.100;6.516;2022-08-06T04:55:37;4.90;;;3.00;;
29958;SDS011;16815;51.100;6.516;2022-08-06T04:58:04;7.67;;;3.60;;
29958;SDS011;16815;51.100;6.516;2022-08-06T05:00:31;6.57;;;3.40;;
29958;SDS011;16815;51.100;6.516;2022-08-06T05:02:57;4.63;;;3.50;;
29958;SDS011;16815;51.100;6.516;2022-08-06T05:05:23;5.83;;;3.40;;
29958;SDS011;16815;51.100;6.516;2022-08-06T05:07:50;6.07;;;3.40;;
29958;SDS011;16815;51.100;6.516;2022-08-06T05:10:17;5.00;;;3.27;;
29958;SDS011;16815;51.100;6.516;2022-08-06T05:12:45;4.03;;;3.20;;
29958;SDS011;16815;51.100;6.516;2022-08-06T05:15:16;9.50;;;3.40;;
29958;SDS011;16815;51.100;6.516;2022-08-06T05:17:45;5.27;;;3.43;;
29958;SDS011;16815;51.100;6.516;2022-08-06T05:20:14;5.13;;;3.10;;
29958;SDS011;16815;51.100;6.516;2022-08-06T05:22:40;4.47;;;3.00;;
29958;SDS011;16815;51.100;6.516;2022-08-06T05:25:08;5.43;;;2.70;;
29958;SDS011;16815;51.100;6.516;2022-08-06T05:27:34;6.10;;;3.03;;
29958;SDS011;16815;51.100;6.516;2022-08-06T05:30:01;5.93;;;3.40;;
29958;SDS011;16815;51.100;6.516;2022-08-06T05:32:26;7.03;;;3.10;;
29958;SDS011;16815;51.100;6.516;2022-08-06T05:34:52;5.23;;;2.90;;
29958;SDS011;16815;51.100;6.516;2022-08-06T05:37:18;7.83;;;3.50;;
29958;SDS011;16815;51.100;6.516;2022-08-06T05:39:44;7.63;;;3.23;;
29958;SDS011;16815;51.100;6.516;2022-08-06T05:42:10;5.00;;;2.90;;
29958;SDS011;16815;51.100;6.516;2022-08-06T05:44:36;7.67;;;3.73;;
29958;SDS011;16815;51.100;6.516;2022-08-06T05:47:06;5.00;;;2.93;;
29958;SDS011;16815;51.100;6.516;2022-08-06T05:49:42;8.23;;;3.23;;
29958;SDS011;16815;51.100;6.516;2022-08-06T05:52:11;6.47;;;2.80;;
29958;SDS011;16815;51.100;6.516;2022-08-06T05:54:52;8.57;;;3.30;;
29958;SDS011;16815;51.100;6.516;2022-08-06T05:57:21;7.10;;;2.90;;
29958;SDS011;16815;51.100;6.516;2022-08-06T05:59:51;4.20;;;2.80;;
29958;SDS011;16815;51.100;6.516;2022-08-06T06:02:18;5.70;;;2.67;;
29958;SDS011;16815;51.100;6.516;2022-08-06T06:04:44;6.97;;;2.97;;
29958;SDS011;16815;51.100;6.516;2022-08-06T06:07:11;6.20;;;2.73;;
29958;SDS011;16815;51.100;6.516;2022-08-06T06:09:38;5.80;;;2.60;;
29958;SDS011;16815;51.100;6.516;2022-08-06T06:12:04;4.07;;;2.80;;
29958;SDS011;16815;51.100;6.516;2022-08-06T06:14:40;5.83;;;2.80;;
29958;SDS011;16815;51.100;6.516;2022-08-06T06:19:51;7.10;;;2.73;;
29958;SDS011;16815;51.100;6.516;2022-08-06T06:22:21;4.90;;;2.90;;
29958;SDS011;16815;51.100;6.516;2022-08-06T06:24:50;3.13;;;2.17;;
29958;SDS011;16815;51.100;6.516;2022-08-06T06:32:37;5.67;;;2.70;;
29958;SDS011;16815;51.100;6.516;2022-08-06T06:43:04;7.47;;;2.07;;
29958;SDS011;16815;51.100;6.516;2022-08-06T06:45:36;8.40;;;2.50;;
29958;SDS011;16815;51.100;6.516;2022-08-06T06:48:08;5.87;;;1.93;;
29958;SDS011;16815;51.100;6.516;2022-08-06T06:50:37;4.97;;;2.43;;
29958;SDS011;16815;51.100;6.516;2022-08-06T06:53:06;3.73;;;2.33;;
29958;SDS011;16815;51.100;6.516;2022-08-06T06:55:36;5.77;;;2.20;;
29958;SDS011;16815;51.100;6.516;2022-08-06T06:58:15;3.67;;;2.40;;
29958;SDS011;16815;51.100;6.516;2022-08-06T07:00:42;3.63;;;2.07;;
29958;SDS011;16815;51.100;6.516;2022-08-06T07:03:08;3.67;;;1.93;;
29958;SDS011;16815;51.100;6.516;2022-08-06T07:05:36;4.97;;;2.00;;
29958;SDS011;16815;51.100;6.516;2022-08-06T07:08:03;4.43;;;1.87;;
29958;SDS011;16815;51.100;6.516;2022-08-06T07:10:30;4.80;;;2.40;;
29958;SDS011;16815;51.100;6.516;2022-08-06T07:12:56;4.97;;;1.80;;
29958;SDS011;16815;51.100;6.516;2022-08-06T07:15:23;4.80;;;1.87;;
29958;SDS011;16815;51.100;6.516;2022-08-06T07:17:49;2.83;;;1.70;;
29958;SDS011;16815;51.100;6.516;2022-08-06T07:20:18;3.93;;;1.83;;
29958;SDS011;16815;51.100;6.516;2022-08-06T07:22:44;5.63;;;1.97;;
29958;SDS011;16815;51.100;6.516;2022-08-06T07:25:12;3.67;;;1.60;;
29958;SDS011;16815;51.100;6.516;2022-08-06T07:27:39;3.90;;;1.50;;
29958;SDS011;16815;51.100;6.516;2022-08-06T07:30:06;4.43;;;1.53;;
29958;SDS011;16815;51.100;6.516;2022-08-06T07:32:33;4.93;;;1.80;;
29958;SDS011;16815;51.100;6.516;2022-08-06T07:35:01;4.63;;;2.40;;
29958;SDS011;16815;51.100;6.516;2022-08-06T07:37:28;2.30;;;1.50;;
29958;SDS011;16815;51.100;6.516;2022-08-06T07:39:54;5.00;;;1.87;;
29958;SDS011;16815;51.100;6.516;2022-08-06T07:42:21;2.87;;;1.30;;
29958;SDS011;16815;51.100;6.516;2022-08-06T07:44:50;3.27;;;1.10;;
29958;SDS011;16815;51.100;6.516;2022-08-06T07:47:19;4.87;;;1.60;;
29958;SDS011;16815;51.100;6.516;2022-08-06T07:49:45;3.13;;;1.50;;
29958;SDS011;16815;51.100;6.516;2022-08-06T07:52:15;1.93;;;1.33;;
29958;SDS011;16815;51.100;6.516;2022-08-06T07:54:41;3.00;;;1.10;;
29958;SDS011;16815;51.100;6.516;2022-08-06T07:57:07;3.03;;;1.43;;
29958;SDS011;16815;51.100;6.516;2022-08-06T07:59:35;5.07;;;1.77;;
29958;SDS011;16815;51.100;6.516;2022-08-06T08:02:02;4.93;;;1.90;;
29958;SDS011;16815;51.100;6.516;2022-08-06T08:04:29;1.63;;;1.20;;
29958;SDS011;16815;51.100;6.516;2022-08-06T08:07:14;3.23;;;1.50;;
29958;SDS011;16815;51.100;6.516;2022-08-06T08:09:41;3.13;;;1.13;;
29958;SDS011;16815;51.100;6.516;2022-08-06T08:12:09;3.83;;;1.50;;
29958;SDS011;16815;51.100;6.516;2022-08-06T08:14:36;1.03;;;0.90;;
29958;SDS011;16815;51.100;6.516;2022-08-06T08:17:03;2.90;;;1.20;;
29958;SDS011;16815;51.100;6.516;2022-08-06T08:19:30;1.80;;;1.10;;
29958;SDS011;16815;51.100;6.516;2022-08-06T08:21:56;2.20;;;1.07;;
29958;SDS011;16815;51.100;6.516;2022-08-06T08:24:23;2.10;;;1.20;;
29958;SDS011;16815;51.100;6.516;2022-08-06T08:26:49;3.33;;;1.23;;
29958;SDS011;16815;51.100;6.516;2022-08-06T08:29:15;2.50;;;0.93;;
29958;SDS011;16815;51.100;6.516;2022-08-06T08:31:41;4.33;;;1.20;;
29958;SDS011;16815;51.100;6.516;2022-08-06T08:34:07;2.20;;;1.00;;
29958;SDS011;16815;51.100;6.516;2022-08-06T08:36:33;2.33;;;0.90;;
29958;SDS011;16815;51.100;6.516;2022-08-06T08:39:00;2.00;;;0.90;;
29958;SDS011;16815;51.100;6.516;2022-08-06T08:41:49;2.23;;;1.10;;
29958;SDS011;16815;51.100;6.516;2022-08-06T08:44:12;3.07;;;1.30;;
29958;SDS011;16815;51.100;6.516;2022-08-06T08:46:39;4.10;;;1.10;;
29958;SDS011;16815;51.100;6.516;2022-08-06T08:49:07;2.50;;;1.00;;
29958;SDS011;16815;51.100;6.516;2022-08-06T08:51:34;1.57;;;1.03;;
29958;SDS011;16815;51.100;6.516;2022-08-06T08:54:01;2.27;;;1.13;;
29958;SDS011;16815;51.100;6.516;2022-08-06T08:56:27;1.77;;;1.10;;
29958;SDS011;16815;51.100;6.516;2022-08-06T08:58:53;4.17;;;1.10;;
29958;SDS011;16815;51.100;6.516;2022-08-06T09:01:19;1.30;;;0.90;;
29958;SDS011;16815;51.100;6.516;2022-08-06T09:03:45;3.40;;;0.97;;
29958;SDS011;16815;51.100;6.516;2022-08-06T09:06:12;2.30;;;1.20;;
29958;SDS011;16815;51.100;6.516;2022-08-06T09:08:38;1.70;;;0.70;;
29958;SDS011;16815;51.100;6.516;2022-08-06T09:11:05;1.67;;;0.83;;
29958;SDS011;16815;51.100;6.516;2022-08-06T09:13:31;2.53;;;0.83;;
29958;SDS011;16815;51.100;6.516;2022-08-06T09:15:57;4.50;;;1.10;;
29958;SDS011;16815;51.100;6.516;2022-08-06T09:18:24;2.10;;;0.70;;
29958;SDS011;16815;51.100;6.516;2022-08-06T09:20:50;3.30;;;0.83;;
29958;SDS011;16815;51.100;6.516;2022-08-06T09:23:17;1.57;;;0.90;;
29958;SDS011;16815;51.100;6.516;2022-08-06T09:25:44;1.23;;;0.67;;
29958;SDS011;16815;51.100;6.516;2022-08-06T09:28:25;1.07;;;0.90;;
29958;SDS011;16815;51.100;6.516;2022-08-06T09:31:02;1.70;;;0.97;;
29958;SDS011;16815;51.100;6.516;2022-08-06T09:33:29;3.00;;;0.87;;
29958;SDS011;16815;51.100;6.516;2022-08-06T09:35:59;2.70;;;0.80;;
29958;SDS011;16815;51.100;6.516;2022-08-06T09:38:26;2.03;;;0.53;;
29958;SDS011;16815;51.100;6.516;2022-08-06T09:41:06;1.67;;;0.77;;
29958;SDS011;16815;51.100;6.516;2022-08-06T09:43:33;2.10;;;0.80;;
29958;SDS011;16815;51.100;6.516;2022-08-06T09:45:58;2.87;;;1.00;;
29958;SDS011;16815;51.100;6.516;2022-08-06T09:48:24;0.70;;;0.60;;
29958;SDS011;16815;51.100;6.516;2022-08-06T09:50:50;1.13;;;0.70;;
29958;SDS011;16815;51.100;6.516;2022-08-06T09:53:16;1.33;;;0.80;;
29958;SDS011;16815;51.100;6.516;2022-08-06T09:55:43;2.63;;;1.10;;
29958;SDS011;16815;51.100;6.516;2022-08-06T09:58:09;3.10;;;0.90;;
29958;SDS011;16815;51.100;6.516;2022-08-06T10:00:36;1.80;;;0.90;;
29958;SDS011;16815;51.100;6.516;2022-08-06T10:03:03;1.10;;;1.00;;
29958;SDS011;16815;51.100;6.516;2022-08-06T10:05:30;1.60;;;0.90;;
29958;SDS011;16815;51.100;6.516;2022-08-06T10:08:04;2.53;;;0.87;;
29958;SDS011;16815;51.100;6.516;2022-08-06T10:13:13;2.43;;;1.60;;
29958;SDS011;16815;51.100;6.516;2022-08-06T10:15:40;2.63;;;1.30;;
29958;SDS011;16815;51.100;6.516;2022-08-06T10:18:06;2.10;;;1.40;;
29958;SDS011;16815;51.100;6.516;2022-08-06T10:20:32;2.87;;;1.67;;
29958;SDS011;16815;51.100;6.516;2022-08-06T10:22:58;3.57;;;1.60;;
29958;SDS011;16815;51.100;6.516;2022-08-06T10:25:24;2.80;;;1.40;;
29958;SDS011;16815;51.100;6.516;2022-08-06T10:27:53;2.53;;;1.40;;
29958;SDS011;16815;51.100;6.516;2022-08-06T10:30:20;1.67;;;1.00;;
29958;SDS011;16815;51.100;6.516;2022-08-06T10:35:15;2.80;;;1.50;;
29958;SDS011;16815;51.100;6.516;2022-08-06T10:37:41;2.17;;;1.23;;
29958;SDS011;16815;51.100;6.516;2022-08-06T10:40:09;1.67;;;1.37;;
29958;SDS011;16815;51.100;6.516;2022-08-06T10:42:35;1.80;;;1.20;;
29958;SDS011;16815;51.100;6.516;2022-08-06T10:45:01;2.50;;;0.90;;
29958;SDS011;16815;51.100;6.516;2022-08-06T10:47:27;3.90;;;1.20;;
29958;SDS011;16815;51.100;6.516;2022-08-06T10:49:53;2.47;;;1.03;;
29958;SDS011;16815;51.100;6.516;2022-08-06T10:52:19;1.70;;;0.90;;
29958;SDS011;16815;51.100;6.516;2022-08-06T10:54:46;1.60;;;0.80;;
29958;SDS011;16815;51.100;6.516;2022-08-06T10:57:11;2.13;;;0.97;;
29958;SDS011;16815;51.100;6.516;2022-08-06T10:59:39;2.07;;;0.90;;
29958;SDS011;16815;51.100;6.516;2022-08-06T11:04:43;1.03;;;0.60;;
29958;SDS011;16815;51.100;6.516;2022-08-06T11:09:51;1.30;;;0.70;;
29958;SDS011;16815;51.100;6.516;2022-08-06T11:15:05;2.87;;;1.37;;
29958;SDS011;16815;51.100;6.516;2022-08-06T11:17:47;1.35;;;1.00;;
29958;SDS011;16815;51.100;6.516;2022-08-06T11:23:01;2.77;;;1.07;;
29958;SDS011;16815;51.100;6.516;2022-08-06T11:25:43;1.55;;;1.13;;
29958;SDS011;16815;51.100;6.516;2022-08-06T11:28:16;3.53;;;1.48;;
29958;SDS011;16815;51.100;6.516;2022-08-06T11:33:08;3.67;;;0.88;;
29958;SDS011;16815;51.100;6.516;2022-08-06T11:38:01;1.48;;;1.00;;
29958;SDS011;16815;51.100;6.516;2022-08-06T11:40:28;1.77;;;0.90;;
29958;SDS011;16815;51.100;6.516;2022-08-06T11:42:54;2.03;;;1.10;;
29958;SDS011;16815;51.100;6.516;2022-08-06T11:45:20;1.20;;;0.70;;
29958;SDS011;16815;51.100;6.516;2022-08-06T11:50:31;2.15;;;0.68;;
29958;SDS011;16815;51.100;6.516;2022-08-06T11:52:57;1.35;;;0.57;;
29958;SDS011;16815;51.100;6.516;2022-08-06T11:55:23;1.88;;;0.70;;
29958;SDS011;16815;51.100;6.516;2022-08-06T11:57:50;2.55;;;0.82;;
29958;SDS011;16815;51.100;6.516;2022-08-06T12:00:20;1.58;;;0.77;;
29958;SDS011;16815;51.100;6.516;2022-08-06T12:02:47;1.60;;;0.80;;
29958;SDS011;16815;51.100;6.516;2022-08-06T12:07:42;1.33;;;0.80;;
29958;SDS011;16815;51.100;6.516;2022-08-06T12:10:10;1.00;;;0.70;;
29958;SDS011;16815;51.100;6.516;2022-08-06T12:20:27;1.95;;;0.90;;
29958;SDS011;16815;51.100;6.516;2022-08-06T12:22:54;3.30;;;0.85;;
29958;SDS011;16815;51.100;6.516;2022-08-06T12:25:20;1.13;;;0.80;;
29958;SDS011;16815;51.100;6.516;2022-08-06T12:27:46;1.20;;;0.77;;
29958;SDS011;16815;51.100;6.516;2022-08-06T12:30:12;1.95;;;0.90;;
29958;SDS011;16815;51.100;6.516;2022-08-06T12:32:38;1.88;;;0.95;;
29958;SDS011;16815;51.100;6.516;2022-08-06T12:35:13;1.20;;;0.73;;
29958;SDS011;16815;51.100;6.516;2022-08-06T12:37:44;1.70;;;0.70;;
29958;SDS011;16815;51.100;6.516;2022-08-06T12:40:13;1.70;;;1.10;;
29958;SDS011;16815;51.100;6.516;2022-08-06T12:43:15;1.75;;;0.90;;
29958;SDS011;16815;51.100;6.516;2022-08-06T12:45:41;2.17;;;1.05;;
29958;SDS011;16815;51.100;6.516;2022-08-06T12:48:08;2.28;;;1.17;;
29958;SDS011;16815;51.100;6.516;2022-08-06T12:50:37;1.50;;;1.10;;
29958;SDS011;16815;51.100;6.516;2022-08-06T12:53:04;2.25;;;0.90;;
29958;SDS011;16815;51.100;6.516;2022-08-06T12:55:31;2.45;;;1.00;;
29958;SDS011;16815;51.100;6.516;2022-08-06T12:57:59;2.60;;;1.00;;
29958;SDS011;16815;51.100;6.516;2022-08-06T13:00:25;3.15;;;0.90;;
29958;SDS011;16815;51.100;6.516;2022-08-06T13:02:51;1.63;;;1.00;;
29958;SDS011;16815;51.100;6.516;2022-08-06T13:05:17;1.13;;;0.90;;
29958;SDS011;16815;51.100;6.516;2022-08-06T13:07:44;2.85;;;1.02;;
29958;SDS011;16815;51.100;6.516;2022-08-06T13:10:11;1.58;;;1.25;;
29958;SDS011;16815;51.100;6.516;2022-08-06T13:12:37;2.10;;;0.90;;
29958;SDS011;16815;51.100;6.516;2022-08-06T13:15:13;1.10;;;0.70;;
29958;SDS011;16815;51.100;6.516;2022-08-06T13:17:40;1.98;;;1.10;;
29958;SDS011;16815;51.100;6.516;2022-08-06T13:20:06;3.90;;;0.80;;
29958;SDS011;16815;51.100;6.516;2022-08-06T13:22:51;2.08;;;0.90;;
29958;SDS011;16815;51.100;6.516;2022-08-06T13:25:17;1.10;;;0.82;;
29958;SDS011;16815;51.100;6.516;2022-08-06T13:27:44;1.60;;;0.88;;
29958;SDS011;16815;51.100;6.516;2022-08-06T13:30:10;1.75;;;1.00;;
29958;SDS011;16815;51.100;6.516;2022-08-06T13:32:37;1.08;;;0.95;;
29958;SDS011;16815;51.100;6.516;2022-08-06T13:35:06;1.08;;;0.73;;
29958;SDS011;16815;51.100;6.516;2022-08-06T13:37:51;4.10;;;0.90;;
29958;SDS011;16815;51.100;6.516;2022-08-06T13:40:18;0.98;;;0.80;;
29958;SDS011;16815;51.100;6.516;2022-08-06T13:43:02;2.03;;;1.00;;
29958;SDS011;16815;51.100;6.516;2022-08-06T13:45:28;1.33;;;0.98;;
29958;SDS011;16815;51.100;6.516;2022-08-06T13:48:04;1.25;;;0.80;;
29958;SDS011;16815;51.100;6.516;2022-08-06T13:50:34;2.70;;;0.80;;
29958;SDS011;16815;51.100;6.516;2022-08-06T13:53:01;0.65;;;0.65;;
29958;SDS011;16815;51.100;6.516;2022-08-06T13:55:27;1.35;;;1.00;;
29958;SDS011;16815;51.100;6.516;2022-08-06T13:57:54;4.43;;;0.98;;
29958;SDS011;16815;51.100;6.516;2022-08-06T14:00:20;2.63;;;1.23;;
29958;SDS011;16815;51.100;6.516;2022-08-06T14:02:46;1.10;;;0.68;;
29958;SDS011;16815;51.100;6.516;2022-08-06T14:05:12;1.48;;;0.80;;
29958;SDS011;16815;51.100;6.516;2022-08-06T14:07:38;1.35;;;0.80;;
29958;SDS011;16815;51.100;6.516;2022-08-06T14:10:04;1.52;;;0.80;;
29958;SDS011;16815;51.100;6.516;2022-08-06T14:12:31;1.50;;;1.00;;
29958;SDS011;16815;51.100;6.516;2022-08-06T14:14:57;2.45;;;0.98;;
29958;SDS011;16815;51.100;6.516;2022-08-06T14:17:23;1.95;;;0.85;;
29958;SDS011;16815;51.100;6.516;2022-08-06T14:19:49;1.20;;;0.80;;
29958;SDS011;16815;51.100;6.516;2022-08-06T14:22:15;1.23;;;0.82;;
29958;SDS011;16815;51.100;6.516;2022-08-06T14:24:42;1.10;;;0.80;;
29958;SDS011;16815;51.100;6.516;2022-08-06T14:27:09;1.58;;;0.88;;
29958;SDS011;16815;51.100;6.516;2022-08-06T14:29:35;1.63;;;1.10;;
29958;SDS011;16815;51.100;6.516;2022-08-06T14:32:04;2.50;;;0.90;;
29958;SDS011;16815;51.100;6.516;2022-08-06T14:34:30;3.05;;;0.80;;
29958;SDS011;16815;51.100;6.516;2022-08-06T14:36:57;3.50;;;0.98;;
29958;SDS011;16815;51.100;6.516;2022-08-06T14:39:23;2.15;;;0.73;;
29958;SDS011;16815;51.100;6.516;2022-08-06T14:41:49;2.25;;;0.73;;
29958;SDS011;16815;51.100;6.516;2022-08-06T14:44:34;1.95;;;0.60;;
29958;SDS011;16815;51.100;6.516;2022-08-06T14:47:18;1.25;;;0.60;;
29958;SDS011;16815;51.100;6.516;2022-08-06T14:49:44;0.90;;;0.63;;
29958;SDS011;16815;51.100;6.516;2022-08-06T14:52:10;2.95;;;0.90;;
29958;SDS011;16815;51.100;6.516;2022-08-06T14:54:36;3.15;;;0.98;;
29958;SDS011;16815;51.100;6.516;2022-08-06T14:57:04;2.13;;;1.05;;
29958;SDS011;16815;51.100;6.516;2022-08-06T14:59:30;1.65;;;0.95;;
29958;SDS011;16815;51.100;6.516;2022-08-06T15:01:56;2.00;;;1.30;;
29958;SDS011;16815;51.100;6.516;2022-08-06T15:04:22;1.67;;;0.82;;
29958;SDS011;16815;51.100;6.516;2022-08-06T15:06:48;1.77;;;1.05;;
29958;SDS011;16815;51.100;6.516;2022-08-06T15:09:14;1.10;;;0.90;;
29958;SDS011;16815;51.100;6.516;2022-08-06T15:11:41;1.85;;;0.75;;
29958;SDS011;16815;51.100;6.516;2022-08-06T15:14:07;1.48;;;0.70;;
29958;SDS011;16815;51.100;6.516;2022-08-06T15:16:33;1.20;;;0.90;;
29958;SDS011;16815;51.100;6.516;2022-08-06T15:18:59;0.85;;;0.70;;
29958;SDS011;16815;51.100;6.516;2022-08-06T15:21:25;1.83;;;0.80;;
29958;SDS011;16815;51.100;6.516;2022-08-06T15:23:51;2.28;;;1.10;;
29958;SDS011;16815;51.100;6.516;2022-08-06T15:26:19;1.23;;;1.13;;
29958;SDS011;16815;51.100;6.516;2022-08-06T15:28:45;2.65;;;0.98;;
29958;SDS011;16815;51.100;6.516;2022-08-06T15:31:11;3.87;;;1.27;;
29958;SDS011;16815;51.100;6.516;2022-08-06T15:33:36;2.33;;;1.10;;
29958;SDS011;16815;51.100;6.516;2022-08-06T15:36:03;2.60;;;1.10;;
29958;SDS011;16815;51.100;6.516;2022-08-06T15:38:29;2.33;;;1.08;;
29958;SDS011;16815;51.100;6.516;2022-08-06T15:40:55;2.13;;;0.97;;
29958;SDS011;16815;51.100;6.516;2022-08-06T15:43:22;2.53;;;1.63;;
29958;SDS011;16815;51.100;6.516;2022-08-06T15:45:49;2.55;;;1.00;;
29958;SDS011;16815;51.100;6.516;2022-08-06T15:48:14;1.30;;;0.88;;
29958;SDS011;16815;51.100;6.516;2022-08-06T15:50:41;4.00;;;1.10;;
29958;SDS011;16815;51.100;6.516;2022-08-06T15:53:08;1.27;;;0.90;;